sensor_id;sensor_type;location;lat;lon;timestamp;temperature;humidity
12634;DHT22;6382;48.614;8.880;2023-07-29T00:01:32;16.60;99.90
12634;DHT22;6382;48.614;8.880;2023-07-29T00:03:59;16.90;99.90
12634;DHT22;6382;48.614;8.880;2023-07-29T00:06:26;16.60;99.90
12634;DHT22;6382;48.614;8.880;2023-07-29T00:08:53;17.10;99.90
12634;DHT22;6382;48.614;8.880;2023-07-29T00:11:20;17.80;99.90
12634;DHT22;6382;48.614;8.880;2023-07-29T00:13:47;17.70;99.90
12634;DHT22;6382;48.614;8.880;2023-07-29T00:16:13;17.60;99.90
12634;DHT22;6382;48.614;8.880;2023-07-29T00:18:42;16.80;99.90
12634;DHT22;6382;48.614;8.880;2023-07-29T00:21:09;16.70;99.90
12634;DHT22;6382;48.614;8.880;2023-07-29T00:23:36;17.80;99.90
12634;DHT22;6382;48.614;8.880;2023-07-29T00:26:02;16.70;99.90
12634;DHT22;6382;48.614;8.880;2023-07-29T00:28:29;17.00;99.90
12634;DHT22;6382;48.614;8.880;2023-07-29T00:30:56;16.50;99.90
12634;DHT22;6382;48.614;8.880;2023-07-29T00:33:23;18.50;99.90
12634;DHT22;6382;48.614;8.880;2023-07-29T00:35:50;18.50;99.90
12634;DHT22;6382;48.614;8.880;2023-07-29T00:38:17;17.90;99.90
12634;DHT22;6382;48.614;8.880;2023-07-29T00:40:43;16.60;99.90
12634;DHT22;6382;48.614;8.880;2023-07-29T00:43:10;16.90;99.90
12634;DHT22;6382;48.614;8.880;2023-07-29T00:45:37;17.70;99.90
12634;DHT22;6382;48.614;8.880;2023-07-29T00:48:04;18.20;99.90
12634;DHT22;6382;48.614;8.880;2023-07-29T00:50:31;17.80;99.90
12634;DHT22;6382;48.614;8.880;2023-07-29T00:52:58;16.50;99.90
12634;DHT22;6382;48.614;8.880;2023-07-29T00:55:26;18.50;99.90
12634;DHT22;6382;48.614;8.880;2023-07-29T00:57:53;17.50;99.90
12634;DHT22;6382;48.614;8.880;2023-07-29T01:00:21;17.60;99.90
12634;DHT22;6382;48.614;8.880;2023-07-29T01:02:48;16.70;99.90
12634;DHT22;6382;48.614;8.880;2023-07-29T01:05:16;18.50;99.90
12634;DHT22;6382;48.614;8.880;2023-07-29T01:07:59;18.50;99.90
12634;DHT22;6382;48.614;8.880;2023-07-29T01:10:39;16.50;99.90
12634;DHT22;6382;48.614;8.880;2023-07-29T01:15:47;16.60;99.90
12634;DHT22;6382;48.614;8.880;2023-07-29T01:18:18;16.60;99.90
12634;DHT22;6382;48.614;8.880;2023-07-29T01:20:47;17.40;99.90
12634;DHT22;6382;48.614;8.880;2023-07-29T01:23:15;17.60;99.90
12634;DHT22;6382;48.614;8.880;2023-07-29T01:25:42;16.60;99.90
12634;DHT22;6382;48.614;8.880;2023-07-29T01:28:08;16.60;99.90
12634;DHT22;6382;48.614;8.880;2023-07-29T01:30:38;16.60;99.90
12634;DHT22;6382;48.614;8.880;2023-07-29T01:33:14;16.60;99.90
12634;DHT22;6382;48.614;8.880;2023-07-29T01:35:42;16.50;99.90
12634;DHT22;6382;48.614;8.880;2023-07-29T01:38:16;16.50;99.90
12634;DHT22;6382;48.614;8.880;2023-07-29T01:40:43;16.50;99.90
12634;DHT22;6382;48.614;8.880;2023-07-29T01:43:10;17.00;99.90
12634;DHT22;6382;48.614;8.880;2023-07-29T01:45:37;16.50;99.90
12634;DHT22;6382;48.614;8.880;2023-07-29T01:48:05;17.30;99.90
12634;DHT22;6382;48.614;8.880;2023-07-29T01:50:32;16.50;99.90
12634;DHT22;6382;48.614;8.880;2023-07-29T01:52:59;17.70;99.90
12634;DHT22;6382;48.614;8.880;2023-07-29T01:55:26;17.20;99.90
12634;DHT22;6382;48.614;8.880;2023-07-29T01:57:52;16.50;99.90
12634;DHT22;6382;48.614;8.880;2023-07-29T02:00:19;18.20;99.90
12634;DHT22;6382;48.614;8.880;2023-07-29T02:02:46;16.50;99.90
12634;DHT22;6382;48.614;8.880;2023-07-29T02:05:13;18.40;99.90
12634;DHT22;6382;48.614;8.880;2023-07-29T02:07:39;16.50;99.90
12634;DHT22;6382;48.614;8.880;2023-07-29T02:10:06;17.00;99.90
12634;DHT22;6382;48.614;8.880;2023-07-29T02:12:33;16.50;99.90
12634;DHT22;6382;48.614;8.880;2023-07-29T02:14:59;16.50;99.90
12634;DHT22;6382;48.614;8.880;2023-07-29T02:17:26;18.00;99.90
12634;DHT22;6382;48.614;8.880;2023-07-29T02:19:53;17.50;99.90
12634;DHT22;6382;48.614;8.880;2023-07-29T02:22:20;16.40;99.90
12634;DHT22;6382;48.614;8.880;2023-07-29T02:24:46;16.70;99.90
12634;DHT22;6382;48.614;8.880;2023-07-29T02:27:13;17.60;99.90
12634;DHT22;6382;48.614;8.880;2023-07-29T02:29:40;18.10;99.90
12634;DHT22;6382;48.614;8.880;2023-07-29T02:32:06;16.40;99.90
12634;DHT22;6382;48.614;8.880;2023-07-29T02:34:33;16.30;99.90
12634;DHT22;6382;48.614;8.880;2023-07-29T02:37:00;16.90;99.90
12634;DHT22;6382;48.614;8.880;2023-07-29T02:39:27;18.20;99.90
12634;DHT22;6382;48.614;8.880;2023-07-29T02:41:53;17.00;99.90
12634;DHT22;6382;48.614;8.880;2023-07-29T02:44:21;16.90;99.90
12634;DHT22;6382;48.614;8.880;2023-07-29T02:46:48;17.70;99.90
12634;DHT22;6382;48.614;8.880;2023-07-29T02:49:15;17.30;99.90
12634;DHT22;6382;48.614;8.880;2023-07-29T02:51:42;17.40;99.90
12634;DHT22;6382;48.614;8.880;2023-07-29T02:54:09;16.40;99.90
12634;DHT22;6382;48.614;8.880;2023-07-29T02:56:35;16.20;99.90
12634;DHT22;6382;48.614;8.880;2023-07-29T02:59:02;17.20;99.90
12634;DHT22;6382;48.614;8.880;2023-07-29T03:01:29;17.20;99.90
12634;DHT22;6382;48.614;8.880;2023-07-29T03:03:56;16.30;99.90
12634;DHT22;6382;48.614;8.880;2023-07-29T03:06:23;16.30;99.90
12634;DHT22;6382;48.614;8.880;2023-07-29T03:08:50;19.00;99.90
12634;DHT22;6382;48.614;8.880;2023-07-29T03:11:17;17.30;99.90
12634;DHT22;6382;48.614;8.880;2023-07-29T03:13:44;16.40;99.90
12634;DHT22;6382;48.614;8.880;2023-07-29T03:16:14;18.20;99.90
12634;DHT22;6382;48.614;8.880;2023-07-29T03:18:41;16.50;99.90
12634;DHT22;6382;48.614;8.880;2023-07-29T03:21:08;17.00;99.90
12634;DHT22;6382;48.614;8.880;2023-07-29T03:23:36;18.50;99.90
12634;DHT22;6382;48.614;8.880;2023-07-29T03:26:03;17.60;99.90
12634;DHT22;6382;48.614;8.880;2023-07-29T03:28:40;18.10;99.90
12634;DHT22;6382;48.614;8.880;2023-07-29T03:31:07;18.30;99.90
12634;DHT22;6382;48.614;8.880;2023-07-29T03:33:34;17.20;99.90
12634;DHT22;6382;48.614;8.880;2023-07-29T03:36:01;16.90;99.90
12634;DHT22;6382;48.614;8.880;2023-07-29T03:38:27;16.50;99.90
12634;DHT22;6382;48.614;8.880;2023-07-29T03:40:54;17.80;99.90
12634;DHT22;6382;48.614;8.880;2023-07-29T03:43:21;17.50;99.90
12634;DHT22;6382;48.614;8.880;2023-07-29T03:45:48;16.60;99.90
12634;DHT22;6382;48.614;8.880;2023-07-29T03:48:15;18.40;99.90
12634;DHT22;6382;48.614;8.880;2023-07-29T03:50:41;16.60;99.90
12634;DHT22;6382;48.614;8.880;2023-07-29T03:53:08;16.90;99.90
12634;DHT22;6382;48.614;8.880;2023-07-29T03:55:36;17.30;99.90
12634;DHT22;6382;48.614;8.880;2023-07-29T03:58:03;18.50;99.90
12634;DHT22;6382;48.614;8.880;2023-07-29T04:00:30;18.20;99.90
12634;DHT22;6382;48.614;8.880;2023-07-29T04:02:56;16.60;99.90
12634;DHT22;6382;48.614;8.880;2023-07-29T04:05:23;18.90;99.90
12634;DHT22;6382;48.614;8.880;2023-07-29T04:07:50;16.60;99.90
12634;DHT22;6382;48.614;8.880;2023-07-29T04:10:17;18.30;99.90
12634;DHT22;6382;48.614;8.880;2023-07-29T04:12:44;16.60;99.90
12634;DHT22;6382;48.614;8.880;2023-07-29T04:15:10;17.90;99.90
12634;DHT22;6382;48.614;8.880;2023-07-29T04:17:37;17.60;99.90
12634;DHT22;6382;48.614;8.880;2023-07-29T04:20:04;17.60;99.90
12634;DHT22;6382;48.614;8.880;2023-07-29T04:22:31;16.50;99.90
12634;DHT22;6382;48.614;8.880;2023-07-29T04:24:58;18.20;99.90
12634;DHT22;6382;48.614;8.880;2023-07-29T04:27:25;16.50;99.90
12634;DHT22;6382;48.614;8.880;2023-07-29T04:29:52;17.70;99.90
12634;DHT22;6382;48.614;8.880;2023-07-29T04:32:18;16.60;99.90
12634;DHT22;6382;48.614;8.880;2023-07-29T04:34:45;17.70;99.90
12634;DHT22;6382;48.614;8.880;2023-07-29T04:37:12;16.50;99.90
12634;DHT22;6382;48.614;8.880;2023-07-29T04:39:39;16.70;99.90
12634;DHT22;6382;48.614;8.880;2023-07-29T04:42:05;17.30;99.90
12634;DHT22;6382;48.614;8.880;2023-07-29T04:44:32;16.40;99.90
12634;DHT22;6382;48.614;8.880;2023-07-29T04:46:59;18.30;99.90
12634;DHT22;6382;48.614;8.880;2023-07-29T04:49:26;16.90;99.90
12634;DHT22;6382;48.614;8.880;2023-07-29T04:51:52;16.40;99.90
12634;DHT22;6382;48.614;8.880;2023-07-29T04:54:19;17.60;99.90
12634;DHT22;6382;48.614;8.880;2023-07-29T04:56:47;17.70;99.90
12634;DHT22;6382;48.614;8.880;2023-07-29T04:59:14;17.70;99.90
12634;DHT22;6382;48.614;8.880;2023-07-29T05:01:41;16.50;99.90
12634;DHT22;6382;48.614;8.880;2023-07-29T05:04:09;16.70;99.90
12634;DHT22;6382;48.614;8.880;2023-07-29T05:06:36;16.60;99.90
12634;DHT22;6382;48.614;8.880;2023-07-29T05:09:13;17.60;99.90
12634;DHT22;6382;48.614;8.880;2023-07-29T05:11:40;16.60;99.90
12634;DHT22;6382;48.614;8.880;2023-07-29T05:14:07;16.70;99.90
12634;DHT22;6382;48.614;8.880;2023-07-29T05:16:35;18.00;99.90
12634;DHT22;6382;48.614;8.880;2023-07-29T05:19:03;18.30;99.90
12634;DHT22;6382;48.614;8.880;2023-07-29T05:21:29;18.70;99.90
12634;DHT22;6382;48.614;8.880;2023-07-29T05:23:56;18.20;99.90
12634;DHT22;6382;48.614;8.880;2023-07-29T05:26:23;17.90;99.90
12634;DHT22;6382;48.614;8.880;2023-07-29T05:28:50;17.50;99.90
12634;DHT22;6382;48.614;8.880;2023-07-29T05:31:17;17.20;99.90
12634;DHT22;6382;48.614;8.880;2023-07-29T05:33:44;16.90;99.90
12634;DHT22;6382;48.614;8.880;2023-07-29T05:36:11;18.40;99.90
12634;DHT22;6382;48.614;8.880;2023-07-29T05:38:37;17.40;99.90
12634;DHT22;6382;48.614;8.880;2023-07-29T05:41:04;18.30;99.90
12634;DHT22;6382;48.614;8.880;2023-07-29T05:43:31;18.50;99.90
12634;DHT22;6382;48.614;8.880;2023-07-29T05:45:57;18.00;99.90
12634;DHT22;6382;48.614;8.880;2023-07-29T05:48:24;17.20;99.90
12634;DHT22;6382;48.614;8.880;2023-07-29T05:50:51;17.80;99.90
12634;DHT22;6382;48.614;8.880;2023-07-29T05:53:18;17.30;99.90
12634;DHT22;6382;48.614;8.880;2023-07-29T05:55:44;19.00;99.90
12634;DHT22;6382;48.614;8.880;2023-07-29T05:58:11;17.40;99.90
12634;DHT22;6382;48.614;8.880;2023-07-29T06:00:38;18.80;99.90
12634;DHT22;6382;48.614;8.880;2023-07-29T06:03:04;17.60;99.90
12634;DHT22;6382;48.614;8.880;2023-07-29T06:05:32;17.80;99.90
12634;DHT22;6382;48.614;8.880;2023-07-29T06:07:58;18.10;99.90
12634;DHT22;6382;48.614;8.880;2023-07-29T06:10:25;17.80;99.90
12634;DHT22;6382;48.614;8.880;2023-07-29T06:12:52;18.00;99.90
12634;DHT22;6382;48.614;8.880;2023-07-29T06:15:19;19.10;99.90
12634;DHT22;6382;48.614;8.880;2023-07-29T06:17:49;19.60;99.90
12634;DHT22;6382;48.614;8.880;2023-07-29T06:20:16;18.10;99.90
12634;DHT22;6382;48.614;8.880;2023-07-29T06:22:42;18.10;99.90
12634;DHT22;6382;48.614;8.880;2023-07-29T06:25:09;18.10;99.90
12634;DHT22;6382;48.614;8.880;2023-07-29T06:27:36;18.00;99.90
12634;DHT22;6382;48.614;8.880;2023-07-29T06:30:03;17.90;99.90
12634;DHT22;6382;48.614;8.880;2023-07-29T06:32:30;17.90;99.90
12634;DHT22;6382;48.614;8.880;2023-07-29T06:34:56;19.10;99.90
12634;DHT22;6382;48.614;8.880;2023-07-29T06:37:23;17.80;99.90
12634;DHT22;6382;48.614;8.880;2023-07-29T06:39:50;17.80;99.90
12634;DHT22;6382;48.614;8.880;2023-07-29T06:42:17;18.40;99.90
12634;DHT22;6382;48.614;8.880;2023-07-29T06:44:43;17.70;99.90
12634;DHT22;6382;48.614;8.880;2023-07-29T06:47:12;17.90;99.90
12634;DHT22;6382;48.614;8.880;2023-07-29T06:49:39;19.30;99.90
12634;DHT22;6382;48.614;8.880;2023-07-29T06:52:06;18.40;99.90
12634;DHT22;6382;48.614;8.880;2023-07-29T06:54:32;17.40;99.90
12634;DHT22;6382;48.614;8.880;2023-07-29T06:56:59;17.60;99.90
12634;DHT22;6382;48.614;8.880;2023-07-29T06:59:26;18.60;99.90
12634;DHT22;6382;48.614;8.880;2023-07-29T07:01:53;18.30;99.90
12634;DHT22;6382;48.614;8.880;2023-07-29T07:04:20;18.60;99.90
12634;DHT22;6382;48.614;8.880;2023-07-29T07:06:46;18.80;99.90
12634;DHT22;6382;48.614;8.880;2023-07-29T07:09:13;19.00;99.90
12634;DHT22;6382;48.614;8.880;2023-07-29T07:11:40;18.30;99.90
12634;DHT22;6382;48.614;8.880;2023-07-29T07:14:07;18.90;99.90
12634;DHT22;6382;48.614;8.880;2023-07-29T07:16:33;18.70;99.90
12634;DHT22;6382;48.614;8.880;2023-07-29T07:19:04;17.40;99.90
12634;DHT22;6382;48.614;8.880;2023-07-29T07:21:31;17.50;99.90
12634;DHT22;6382;48.614;8.880;2023-07-29T07:23:59;17.50;99.90
12634;DHT22;6382;48.614;8.880;2023-07-29T07:26:25;19.40;99.90
12634;DHT22;6382;48.614;8.880;2023-07-29T07:28:52;18.00;99.90
12634;DHT22;6382;48.614;8.880;2023-07-29T07:31:19;19.20;99.90
12634;DHT22;6382;48.614;8.880;2023-07-29T07:33:46;18.30;99.90
12634;DHT22;6382;48.614;8.880;2023-07-29T07:36:13;19.80;99.90
12634;DHT22;6382;48.614;8.880;2023-07-29T07:38:39;17.90;99.90
12634;DHT22;6382;48.614;8.880;2023-07-29T07:41:06;18.40;99.90
12634;DHT22;6382;48.614;8.880;2023-07-29T07:43:33;18.00;99.90
12634;DHT22;6382;48.614;8.880;2023-07-29T07:46:00;19.20;99.90
12634;DHT22;6382;48.614;8.880;2023-07-29T07:48:27;19.20;99.90
12634;DHT22;6382;48.614;8.880;2023-07-29T07:50:54;19.10;99.90
12634;DHT22;6382;48.614;8.880;2023-07-29T07:53:21;20.30;99.90
12634;DHT22;6382;48.614;8.880;2023-07-29T07:55:48;18.40;99.90
12634;DHT22;6382;48.614;8.880;2023-07-29T07:58:14;18.50;99.90
12634;DHT22;6382;48.614;8.880;2023-07-29T08:00:41;19.50;99.90
12634;DHT22;6382;48.614;8.880;2023-07-29T08:03:08;19.20;99.90
12634;DHT22;6382;48.614;8.880;2023-07-29T08:05:35;19.00;99.90
12634;DHT22;6382;48.614;8.880;2023-07-29T08:08:01;19.40;99.90
12634;DHT22;6382;48.614;8.880;2023-07-29T08:10:28;19.10;99.90
12634;DHT22;6382;48.614;8.880;2023-07-29T08:12:55;19.20;99.90
12634;DHT22;6382;48.614;8.880;2023-07-29T08:15:22;19.30;99.90
12634;DHT22;6382;48.614;8.880;2023-07-29T08:17:49;19.90;99.90
12634;DHT22;6382;48.614;8.880;2023-07-29T08:20:16;20.30;99.90
12634;DHT22;6382;48.614;8.880;2023-07-29T08:22:42;19.50;99.90
12634;DHT22;6382;48.614;8.880;2023-07-29T08:25:09;19.70;99.90
12634;DHT22;6382;48.614;8.880;2023-07-29T08:27:36;20.20;99.90
12634;DHT22;6382;48.614;8.880;2023-07-29T08:30:02;20.00;99.90
12634;DHT22;6382;48.614;8.880;2023-07-29T08:32:29;20.20;99.90
12634;DHT22;6382;48.614;8.880;2023-07-29T08:34:56;20.50;99.90
12634;DHT22;6382;48.614;8.880;2023-07-29T08:37:23;21.10;99.90
12634;DHT22;6382;48.614;8.880;2023-07-29T08:39:50;21.10;99.90
12634;DHT22;6382;48.614;8.880;2023-07-29T08:42:20;21.30;99.90
12634;DHT22;6382;48.614;8.880;2023-07-29T08:44:49;20.60;99.90
12634;DHT22;6382;48.614;8.880;2023-07-29T08:47:16;21.30;99.90
12634;DHT22;6382;48.614;8.880;2023-07-29T08:49:44;21.80;99.90
12634;DHT22;6382;48.614;8.880;2023-07-29T08:52:11;20.80;99.90
12634;DHT22;6382;48.614;8.880;2023-07-29T08:54:38;20.90;99.90
12634;DHT22;6382;48.614;8.880;2023-07-29T08:57:06;20.90;99.90
12634;DHT22;6382;48.614;8.880;2023-07-29T08:59:33;21.10;99.90
12634;DHT22;6382;48.614;8.880;2023-07-29T09:01:59;21.10;99.90
12634;DHT22;6382;48.614;8.880;2023-07-29T09:04:26;21.30;99.90
12634;DHT22;6382;48.614;8.880;2023-07-29T09:06:55;21.50;99.90
12634;DHT22;6382;48.614;8.880;2023-07-29T09:09:22;22.00;99.90
12634;DHT22;6382;48.614;8.880;2023-07-29T09:11:49;21.70;99.90
12634;DHT22;6382;48.614;8.880;2023-07-29T09:14:15;23.20;99.90
12634;DHT22;6382;48.614;8.880;2023-07-29T09:16:42;22.10;99.90
12634;DHT22;6382;48.614;8.880;2023-07-29T09:19:10;23.40;99.90
12634;DHT22;6382;48.614;8.880;2023-07-29T09:21:40;22.60;99.90
12634;DHT22;6382;48.614;8.880;2023-07-29T09:24:07;22.70;99.90
12634;DHT22;6382;48.614;8.880;2023-07-29T09:26:34;23.70;99.90
12634;DHT22;6382;48.614;8.880;2023-07-29T09:29:02;22.90;99.90
12634;DHT22;6382;48.614;8.880;2023-07-29T09:31:29;23.00;99.90
12634;DHT22;6382;48.614;8.880;2023-07-29T09:33:57;23.00;99.90
12634;DHT22;6382;48.614;8.880;2023-07-29T09:36:24;22.90;99.90
12634;DHT22;6382;48.614;8.880;2023-07-29T09:38:52;23.10;99.90
12634;DHT22;6382;48.614;8.880;2023-07-29T09:41:19;23.00;99.90
12634;DHT22;6382;48.614;8.880;2023-07-29T09:43:48;22.90;99.90
12634;DHT22;6382;48.614;8.880;2023-07-29T09:46:22;22.80;99.90
12634;DHT22;6382;48.614;8.880;2023-07-29T09:48:49;24.50;99.90
12634;DHT22;6382;48.614;8.880;2023-07-29T09:51:19;23.80;99.90
12634;DHT22;6382;48.614;8.880;2023-07-29T09:53:46;23.00;99.90
12634;DHT22;6382;48.614;8.880;2023-07-29T09:56:14;23.30;99.90
12634;DHT22;6382;48.614;8.880;2023-07-29T09:58:44;23.30;99.90
12634;DHT22;6382;48.614;8.880;2023-07-29T10:01:13;23.30;99.90
12634;DHT22;6382;48.614;8.880;2023-07-29T10:03:40;23.20;99.90
12634;DHT22;6382;48.614;8.880;2023-07-29T10:06:08;23.30;99.90
12634;DHT22;6382;48.614;8.880;2023-07-29T10:08:35;23.30;99.90
12634;DHT22;6382;48.614;8.880;2023-07-29T10:11:05;23.70;99.90
12634;DHT22;6382;48.614;8.880;2023-07-29T10:13:33;23.00;99.90
12634;DHT22;6382;48.614;8.880;2023-07-29T10:16:00;23.10;99.90
12634;DHT22;6382;48.614;8.880;2023-07-29T10:18:30;23.10;99.90
12634;DHT22;6382;48.614;8.880;2023-07-29T10:20:58;23.30;99.90
12634;DHT22;6382;48.614;8.880;2023-07-29T10:23:26;23.40;99.90
12634;DHT22;6382;48.614;8.880;2023-07-29T10:28:25;23.60;99.90
12634;DHT22;6382;48.614;8.880;2023-07-29T10:30:53;24.10;99.90
12634;DHT22;6382;48.614;8.880;2023-07-29T10:33:20;23.60;99.90
12634;DHT22;6382;48.614;8.880;2023-07-29T10:35:46;23.60;99.90
12634;DHT22;6382;48.614;8.880;2023-07-29T10:38:13;23.60;99.90
12634;DHT22;6382;48.614;8.880;2023-07-29T10:40:45;24.30;99.90
12634;DHT22;6382;48.614;8.880;2023-07-29T10:43:12;23.50;99.90
12634;DHT22;6382;48.614;8.880;2023-07-29T10:45:41;23.50;99.90
12634;DHT22;6382;48.614;8.880;2023-07-29T10:48:12;23.60;99.90
12634;DHT22;6382;48.614;8.880;2023-07-29T10:50:39;23.70;99.90
12634;DHT22;6382;48.614;8.880;2023-07-29T10:53:06;23.90;99.90
12634;DHT22;6382;48.614;8.880;2023-07-29T10:55:33;24.20;99.90
12634;DHT22;6382;48.614;8.880;2023-07-29T11:00:45;23.80;99.90
12634;DHT22;6382;48.614;8.880;2023-07-29T11:03:13;23.80;99.90
12634;DHT22;6382;48.614;8.880;2023-07-29T11:08:17;23.90;99.90
12634;DHT22;6382;48.614;8.880;2023-07-29T11:10:45;23.90;99.90
12634;DHT22;6382;48.614;8.880;2023-07-29T11:13:25;23.90;99.90
12634;DHT22;6382;48.614;8.880;2023-07-29T11:15:52;23.80;99.90
12634;DHT22;6382;48.614;8.880;2023-07-29T11:18:20;23.80;99.90
12634;DHT22;6382;48.614;8.880;2023-07-29T11:20:47;23.80;99.90
12634;DHT22;6382;48.614;8.880;2023-07-29T11:23:15;23.90;99.90
12634;DHT22;6382;48.614;8.880;2023-07-29T11:25:42;23.90;99.90
12634;DHT22;6382;48.614;8.880;2023-07-29T11:28:09;25.10;99.90
12634;DHT22;6382;48.614;8.880;2023-07-29T11:30:38;24.20;99.90
12634;DHT22;6382;48.614;8.880;2023-07-29T11:33:05;24.20;99.90
12634;DHT22;6382;48.614;8.880;2023-07-29T11:35:32;24.20;99.90
12634;DHT22;6382;48.614;8.880;2023-07-29T11:37:59;25.70;99.90
12634;DHT22;6382;48.614;8.880;2023-07-29T11:40:25;24.30;99.90
12634;DHT22;6382;48.614;8.880;2023-07-29T11:42:52;25.70;99.90
12634;DHT22;6382;48.614;8.880;2023-07-29T11:45:20;24.40;99.90
12634;DHT22;6382;48.614;8.880;2023-07-29T11:47:47;24.40;99.90
12634;DHT22;6382;48.614;8.880;2023-07-29T11:50:14;24.40;99.90
12634;DHT22;6382;48.614;8.880;2023-07-29T11:52:41;24.60;99.90
12634;DHT22;6382;48.614;8.880;2023-07-29T11:55:09;24.40;99.90
12634;DHT22;6382;48.614;8.880;2023-07-29T11:57:36;24.20;99.90
12634;DHT22;6382;48.614;8.880;2023-07-29T12:00:04;24.30;99.90
12634;DHT22;6382;48.614;8.880;2023-07-29T12:02:33;24.20;99.90
12634;DHT22;6382;48.614;8.880;2023-07-29T12:05:02;24.30;99.90
12634;DHT22;6382;48.614;8.880;2023-07-29T12:07:29;24.60;99.90
12634;DHT22;6382;48.614;8.880;2023-07-29T12:09:56;24.70;99.90
12634;DHT22;6382;48.614;8.880;2023-07-29T12:12:25;24.80;99.90
12634;DHT22;6382;48.614;8.880;2023-07-29T12:14:53;24.70;99.90
12634;DHT22;6382;48.614;8.880;2023-07-29T12:17:20;24.80;99.90
12634;DHT22;6382;48.614;8.880;2023-07-29T12:19:48;24.80;99.90
12634;DHT22;6382;48.614;8.880;2023-07-29T12:22:17;24.90;99.90
12634;DHT22;6382;48.614;8.880;2023-07-29T12:24:45;24.90;99.90
12634;DHT22;6382;48.614;8.880;2023-07-29T12:27:12;24.90;99.90
12634;DHT22;6382;48.614;8.880;2023-07-29T12:29:40;24.80;99.90
12634;DHT22;6382;48.614;8.880;2023-07-29T12:32:07;24.80;99.90
12634;DHT22;6382;48.614;8.880;2023-07-29T12:34:34;24.80;99.90
12634;DHT22;6382;48.614;8.880;2023-07-29T12:37:02;24.70;99.90
12634;DHT22;6382;48.614;8.880;2023-07-29T12:39:30;24.60;99.90
12634;DHT22;6382;48.614;8.880;2023-07-29T12:41:57;24.50;99.90
12634;DHT22;6382;48.614;8.880;2023-07-29T12:44:25;24.60;99.90
12634;DHT22;6382;48.614;8.880;2023-07-29T12:46:52;24.50;99.90
12634;DHT22;6382;48.614;8.880;2023-07-29T12:49:19;24.40;99.90
12634;DHT22;6382;48.614;8.880;2023-07-29T12:51:46;24.30;99.90
12634;DHT22;6382;48.614;8.880;2023-07-29T12:54:13;24.30;99.90
12634;DHT22;6382;48.614;8.880;2023-07-29T12:56:40;24.40;99.90
12634;DHT22;6382;48.614;8.880;2023-07-29T12:59:07;24.30;99.90
12634;DHT22;6382;48.614;8.880;2023-07-29T13:01:34;24.00;99.90
12634;DHT22;6382;48.614;8.880;2023-07-29T13:04:00;24.70;99.90
12634;DHT22;6382;48.614;8.880;2023-07-29T13:06:27;24.10;99.90
12634;DHT22;6382;48.614;8.880;2023-07-29T13:08:57;24.10;99.90
12634;DHT22;6382;48.614;8.880;2023-07-29T13:11:24;24.20;99.90
12634;DHT22;6382;48.614;8.880;2023-07-29T13:13:51;24.40;99.90
12634;DHT22;6382;48.614;8.880;2023-07-29T13:16:17;24.50;99.90
12634;DHT22;6382;48.614;8.880;2023-07-29T13:18:45;24.60;99.90
12634;DHT22;6382;48.614;8.880;2023-07-29T13:21:11;24.60;99.90
12634;DHT22;6382;48.614;8.880;2023-07-29T13:23:38;25.00;99.90
12634;DHT22;6382;48.614;8.880;2023-07-29T13:26:05;24.80;99.90
12634;DHT22;6382;48.614;8.880;2023-07-29T13:28:32;24.80;99.90
12634;DHT22;6382;48.614;8.880;2023-07-29T13:30:59;24.80;99.90
12634;DHT22;6382;48.614;8.880;2023-07-29T13:33:25;25.00;99.90
12634;DHT22;6382;48.614;8.880;2023-07-29T13:35:52;25.00;99.90
12634;DHT22;6382;48.614;8.880;2023-07-29T13:38:19;25.00;99.90
12634;DHT22;6382;48.614;8.880;2023-07-29T13:40:46;25.10;99.90
12634;DHT22;6382;48.614;8.880;2023-07-29T13:43:14;25.20;99.90
12634;DHT22;6382;48.614;8.880;2023-07-29T13:45:41;25.30;99.90
12634;DHT22;6382;48.614;8.880;2023-07-29T13:48:07;25.40;99.90
12634;DHT22;6382;48.614;8.880;2023-07-29T13:50:34;25.40;99.90
12634;DHT22;6382;48.614;8.880;2023-07-29T13:53:01;25.30;99.90
12634;DHT22;6382;48.614;8.880;2023-07-29T13:55:28;25.30;99.90
12634;DHT22;6382;48.614;8.880;2023-07-29T13:57:55;25.20;99.90
12634;DHT22;6382;48.614;8.880;2023-07-29T14:00:22;25.20;99.90
12634;DHT22;6382;48.614;8.880;2023-07-29T14:02:49;25.10;99.90
12634;DHT22;6382;48.614;8.880;2023-07-29T14:05:15;25.10;99.90
12634;DHT22;6382;48.614;8.880;2023-07-29T14:07:42;25.10;99.90
12634;DHT22;6382;48.614;8.880;2023-07-29T14:10:09;25.80;99.90
12634;DHT22;6382;48.614;8.880;2023-07-29T14:12:36;25.10;99.90
12634;DHT22;6382;48.614;8.880;2023-07-29T14:15:03;25.10;99.90
12634;DHT22;6382;48.614;8.880;2023-07-29T14:17:30;24.90;99.90
12634;DHT22;6382;48.614;8.880;2023-07-29T14:19:59;25.00;99.90
12634;DHT22;6382;48.614;8.880;2023-07-29T14:22:26;25.10;99.90
12634;DHT22;6382;48.614;8.880;2023-07-29T14:24:52;25.00;99.90
12634;DHT22;6382;48.614;8.880;2023-07-29T14:27:19;25.00;99.90
12634;DHT22;6382;48.614;8.880;2023-07-29T14:29:46;25.00;99.90
12634;DHT22;6382;48.614;8.880;2023-07-29T14:32:13;25.10;99.90
12634;DHT22;6382;48.614;8.880;2023-07-29T14:34:40;25.10;99.90
12634;DHT22;6382;48.614;8.880;2023-07-29T14:37:06;25.00;99.90
12634;DHT22;6382;48.614;8.880;2023-07-29T14:39:33;25.00;99.90
12634;DHT22;6382;48.614;8.880;2023-07-29T14:42:00;25.00;99.90
12634;DHT22;6382;48.614;8.880;2023-07-29T14:44:27;25.00;99.90
12634;DHT22;6382;48.614;8.880;2023-07-29T14:46:54;25.00;99.90
12634;DHT22;6382;48.614;8.880;2023-07-29T14:49:21;25.00;99.90
12634;DHT22;6382;48.614;8.880;2023-07-29T14:51:48;25.00;99.90
12634;DHT22;6382;48.614;8.880;2023-07-29T14:54:15;25.00;99.90
12634;DHT22;6382;48.614;8.880;2023-07-29T14:56:42;24.90;99.90
12634;DHT22;6382;48.614;8.880;2023-07-29T14:59:09;24.80;99.90
12634;DHT22;6382;48.614;8.880;2023-07-29T15:01:36;24.70;99.90
12634;DHT22;6382;48.614;8.880;2023-07-29T15:04:03;24.70;99.90
12634;DHT22;6382;48.614;8.880;2023-07-29T15:06:30;24.70;99.90
12634;DHT22;6382;48.614;8.880;2023-07-29T15:08:57;24.60;99.90
12634;DHT22;6382;48.614;8.880;2023-07-29T15:11:24;25.60;99.90
12634;DHT22;6382;48.614;8.880;2023-07-29T15:13:51;24.60;99.90
12634;DHT22;6382;48.614;8.880;2023-07-29T15:16:18;24.60;99.90
12634;DHT22;6382;48.614;8.880;2023-07-29T15:18:44;24.70;99.90
12634;DHT22;6382;48.614;8.880;2023-07-29T15:21:11;24.70;99.90
12634;DHT22;6382;48.614;8.880;2023-07-29T15:23:38;24.70;99.90
12634;DHT22;6382;48.614;8.880;2023-07-29T15:26:05;24.60;99.90
12634;DHT22;6382;48.614;8.880;2023-07-29T15:28:31;24.60;99.90
12634;DHT22;6382;48.614;8.880;2023-07-29T15:30:58;24.60;99.90
12634;DHT22;6382;48.614;8.880;2023-07-29T15:33:25;24.50;99.90
12634;DHT22;6382;48.614;8.880;2023-07-29T15:35:52;24.60;99.90
12634;DHT22;6382;48.614;8.880;2023-07-29T15:38:18;24.60;99.90
12634;DHT22;6382;48.614;8.880;2023-07-29T15:40:46;24.70;99.90
12634;DHT22;6382;48.614;8.880;2023-07-29T15:43:15;24.70;99.90
12634;DHT22;6382;48.614;8.880;2023-07-29T15:45:42;24.60;99.90
12634;DHT22;6382;48.614;8.880;2023-07-29T15:48:09;25.10;99.90
12634;DHT22;6382;48.614;8.880;2023-07-29T15:50:36;24.40;99.90
12634;DHT22;6382;48.614;8.880;2023-07-29T15:53:02;24.30;99.90
12634;DHT22;6382;48.614;8.880;2023-07-29T15:55:29;24.20;99.90